sensor_id;sensor_type;location;lat;lon;timestamp;temperature;humidity
39919;DHT22;25589;51.552;13.424;2023-02-28T00:00:39;3.70;99.90
39919;DHT22;25589;51.552;13.424;2023-02-28T00:03:05;3.70;99.90
39919;DHT22;25589;51.552;13.424;2023-02-28T00:05:30;3.30;99.90
39919;DHT22;25589;51.552;13.424;2023-02-28T00:07:56;3.20;99.90
39919;DHT22;25589;51.552;13.424;2023-02-28T00:10:26;3.70;99.90
39919;DHT22;25589;51.552;13.424;2023-02-28T00:12:54;2.70;99.90
39919;DHT22;25589;51.552;13.424;2023-02-28T00:15:22;4.60;99.90
39919;DHT22;25589;51.552;13.424;2023-02-28T00:17:49;3.80;99.90
39919;DHT22;25589;51.552;13.424;2023-02-28T00:20:15;3.50;99.90
39919;DHT22;25589;51.552;13.424;2023-02-28T00:22:46;3.80;99.90
39919;DHT22;25589;51.552;13.424;2023-02-28T00:25:15;3.90;99.90
39919;DHT22;25589;51.552;13.424;2023-02-28T00:27:41;4.60;99.90
39919;DHT22;25589;51.552;13.424;2023-02-28T00:30:14;3.80;99.90
39919;DHT22;25589;51.552;13.424;2023-02-28T00:32:41;3.70;99.90
39919;DHT22;25589;51.552;13.424;2023-02-28T00:35:08;3.60;99.90
39919;DHT22;25589;51.552;13.424;2023-02-28T00:37:33;4.40;99.90
39919;DHT22;25589;51.552;13.424;2023-02-28T00:39:59;4.30;99.90
39919;DHT22;25589;51.552;13.424;2023-02-28T00:42:27;3.60;99.90
39919;DHT22;25589;51.552;13.424;2023-02-28T00:44:52;4.20;99.90
39919;DHT22;25589;51.552;13.424;2023-02-28T00:47:18;3.10;99.90
39919;DHT22;25589;51.552;13.424;2023-02-28T00:49:44;3.50;99.90
39919;DHT22;25589;51.552;13.424;2023-02-28T00:52:09;4.60;99.90
39919;DHT22;25589;51.552;13.424;2023-02-28T00:54:35;3.30;99.90
39919;DHT22;25589;51.552;13.424;2023-02-28T00:57:00;2.50;99.90
39919;DHT22;25589;51.552;13.424;2023-02-28T00:59:26;2.70;99.90
39919;DHT22;25589;51.552;13.424;2023-02-28T01:01:52;2.50;99.90
39919;DHT22;25589;51.552;13.424;2023-02-28T01:04:18;3.00;99.90
39919;DHT22;25589;51.552;13.424;2023-02-28T01:06:44;3.00;99.90
39919;DHT22;25589;51.552;13.424;2023-02-28T01:09:10;2.90;99.90
39919;DHT22;25589;51.552;13.424;2023-02-28T01:11:36;2.60;99.90
39919;DHT22;25589;51.552;13.424;2023-02-28T01:14:02;3.60;99.90
39919;DHT22;25589;51.552;13.424;2023-02-28T01:16:29;3.00;99.90
39919;DHT22;25589;51.552;13.424;2023-02-28T01:18:55;2.70;99.90
39919;DHT22;25589;51.552;13.424;2023-02-28T01:21:21;3.50;99.90
39919;DHT22;25589;51.552;13.424;2023-02-28T01:23:47;2.90;99.90
39919;DHT22;25589;51.552;13.424;2023-02-28T01:26:15;3.00;99.90
39919;DHT22;25589;51.552;13.424;2023-02-28T01:28:42;3.00;99.90
39919;DHT22;25589;51.552;13.424;2023-02-28T01:33:36;2.60;99.90
39919;DHT22;25589;51.552;13.424;2023-02-28T01:36:05;3.10;99.90
39919;DHT22;25589;51.552;13.424;2023-02-28T01:38:32;3.60;99.90
39919;DHT22;25589;51.552;13.424;2023-02-28T01:40:58;3.30;99.90
39919;DHT22;25589;51.552;13.424;2023-02-28T01:43:29;3.30;99.90
39919;DHT22;25589;51.552;13.424;2023-02-28T01:45:56;3.30;99.90
39919;DHT22;25589;51.552;13.424;2023-02-28T01:48:31;2.90;99.90
39919;DHT22;25589;51.552;13.424;2023-02-28T01:51:01;3.00;99.90
39919;DHT22;25589;51.552;13.424;2023-02-28T01:53:36;2.90;99.90
39919;DHT22;25589;51.552;13.424;2023-02-28T01:56:06;3.70;99.90
39919;DHT22;25589;51.552;13.424;2023-02-28T01:58:33;3.60;99.90
39919;DHT22;25589;51.552;13.424;2023-02-28T02:00:58;2.40;99.90
39919;DHT22;25589;51.552;13.424;2023-02-28T02:03:25;2.90;99.90
39919;DHT22;25589;51.552;13.424;2023-02-28T02:05:51;3.00;99.90
39919;DHT22;25589;51.552;13.424;2023-02-28T02:08:23;3.00;99.90
39919;DHT22;25589;51.552;13.424;2023-02-28T02:11:01;3.40;99.90
39919;DHT22;25589;51.552;13.424;2023-02-28T02:13:38;4.10;99.90
39919;DHT22;25589;51.552;13.424;2023-02-28T02:19:28;2.80;99.90
39919;DHT22;25589;51.552;13.424;2023-02-28T02:28:05;2.60;99.90
39919;DHT22;25589;51.552;13.424;2023-02-28T02:36:30;2.60;99.90
39919;DHT22;25589;51.552;13.424;2023-02-28T02:39:12;2.00;99.90
39919;DHT22;25589;51.552;13.424;2023-02-28T02:41:58;2.40;99.90
39919;DHT22;25589;51.552;13.424;2023-02-28T02:44:30;2.50;99.90
39919;DHT22;25589;51.552;13.424;2023-02-28T02:47:05;2.50;99.90
39919;DHT22;25589;51.552;13.424;2023-02-28T02:49:35;2.50;99.90
39919;DHT22;25589;51.552;13.424;2023-02-28T02:52:06;2.00;99.90
39919;DHT22;25589;51.552;13.424;2023-02-28T02:54:36;2.40;99.90
39919;DHT22;25589;51.552;13.424;2023-02-28T02:57:08;2.40;99.90
39919;DHT22;25589;51.552;13.424;2023-02-28T02:59:36;2.40;99.90
39919;DHT22;25589;51.552;13.424;2023-02-28T03:02:06;2.40;99.90
39919;DHT22;25589;51.552;13.424;2023-02-28T03:04:37;2.40;99.90
39919;DHT22;25589;51.552;13.424;2023-02-28T03:07:05;2.30;99.90
39919;DHT22;25589;51.552;13.424;2023-02-28T03:09:33;2.50;99.90
39919;DHT22;25589;51.552;13.424;2023-02-28T03:11:59;2.00;99.90
39919;DHT22;25589;51.552;13.424;2023-02-28T03:14:59;2.30;99.90
39919;DHT22;25589;51.552;13.424;2023-02-28T03:18:29;2.90;99.90
39919;DHT22;25589;51.552;13.424;2023-02-28T03:20:40;2.20;99.90
39919;DHT22;25589;51.552;13.424;2023-02-28T03:23:21;0.90;99.90
39919;DHT22;25589;51.552;13.424;2023-02-28T03:25:59;2.80;99.90
39919;DHT22;25589;51.552;13.424;2023-02-28T03:28:50;2.30;99.90
39919;DHT22;25589;51.552;13.424;2023-02-28T03:31:22;2.90;99.90
39919;DHT22;25589;51.552;13.424;2023-02-28T03:33:55;2.30;99.90
39919;DHT22;25589;51.552;13.424;2023-02-28T03:39:06;2.20;99.90
39919;DHT22;25589;51.552;13.424;2023-02-28T03:41:37;2.70;99.90
39919;DHT22;25589;51.552;13.424;2023-02-28T03:44:13;2.80;99.90
39919;DHT22;25589;51.552;13.424;2023-02-28T03:46:46;2.60;99.90
39919;DHT22;25589;51.552;13.424;2023-02-28T03:49:28;2.30;99.90
39919;DHT22;25589;51.552;13.424;2023-02-28T03:51:58;2.10;99.90
39919;DHT22;25589;51.552;13.424;2023-02-28T03:54:39;2.20;99.90
39919;DHT22;25589;51.552;13.424;2023-02-28T03:57:15;3.00;99.90
39919;DHT22;25589;51.552;13.424;2023-02-28T03:59:47;2.40;99.90
39919;DHT22;25589;51.552;13.424;2023-02-28T04:02:13;2.20;99.90
39919;DHT22;25589;51.552;13.424;2023-02-28T04:04:38;3.00;99.90
39919;DHT22;25589;51.552;13.424;2023-02-28T04:07:14;1.20;99.90
39919;DHT22;25589;51.552;13.424;2023-02-28T04:09:39;3.10;99.90
39919;DHT22;25589;51.552;13.424;2023-02-28T04:14:31;2.30;99.90
39919;DHT22;25589;51.552;13.424;2023-02-28T04:16:56;1.90;99.90
39919;DHT22;25589;51.552;13.424;2023-02-28T04:19:22;2.70;99.90
39919;DHT22;25589;51.552;13.424;2023-02-28T04:21:50;2.00;99.90
39919;DHT22;25589;51.552;13.424;2023-02-28T04:24:18;2.10;99.90
39919;DHT22;25589;51.552;13.424;2023-02-28T04:26:52;2.10;99.90
39919;DHT22;25589;51.552;13.424;2023-02-28T04:29:29;2.00;99.90
39919;DHT22;25589;51.552;13.424;2023-02-28T04:31:56;1.70;99.90
39919;DHT22;25589;51.552;13.424;2023-02-28T04:34:23;2.20;99.90
39919;DHT22;25589;51.552;13.424;2023-02-28T04:36:50;1.90;99.90
39919;DHT22;25589;51.552;13.424;2023-02-28T04:39:17;2.30;99.90
39919;DHT22;25589;51.552;13.424;2023-02-28T04:41:44;2.10;99.90
39919;DHT22;25589;51.552;13.424;2023-02-28T04:44:10;1.50;99.90
39919;DHT22;25589;51.552;13.424;2023-02-28T04:46:35;2.00;99.90
39919;DHT22;25589;51.552;13.424;2023-02-28T04:49:01;2.80;99.90
39919;DHT22;25589;51.552;13.424;2023-02-28T04:51:26;2.10;99.90
39919;DHT22;25589;51.552;13.424;2023-02-28T04:53:52;2.20;99.90
39919;DHT22;25589;51.552;13.424;2023-02-28T04:56:18;2.10;99.90
39919;DHT22;25589;51.552;13.424;2023-02-28T04:58:44;2.10;99.90
39919;DHT22;25589;51.552;13.424;2023-02-28T05:01:25;2.40;99.90
39919;DHT22;25589;51.552;13.424;2023-02-28T05:03:53;2.90;99.90
39919;DHT22;25589;51.552;13.424;2023-02-28T05:08:46;1.90;99.90
39919;DHT22;25589;51.552;13.424;2023-02-28T05:11:38;1.90;99.90
39919;DHT22;25589;51.552;13.424;2023-02-28T05:14:06;2.90;99.90
39919;DHT22;25589;51.552;13.424;2023-02-28T05:16:33;1.80;99.90
39919;DHT22;25589;51.552;13.424;2023-02-28T05:18:58;2.60;99.90
39919;DHT22;25589;51.552;13.424;2023-02-28T05:21:34;3.20;99.90
39919;DHT22;25589;51.552;13.424;2023-02-28T05:24:02;1.70;99.90
39919;DHT22;25589;51.552;13.424;2023-02-28T05:26:29;2.50;99.90
39919;DHT22;25589;51.552;13.424;2023-02-28T05:28:55;1.70;99.90
39919;DHT22;25589;51.552;13.424;2023-02-28T05:31:21;1.70;99.90
39919;DHT22;25589;51.552;13.424;2023-02-28T05:33:47;1.80;99.90
39919;DHT22;25589;51.552;13.424;2023-02-28T05:36:13;2.50;99.90
39919;DHT22;25589;51.552;13.424;2023-02-28T05:38:39;2.30;99.90
39919;DHT22;25589;51.552;13.424;2023-02-28T05:41:08;1.70;99.90
39919;DHT22;25589;51.552;13.424;2023-02-28T05:43:35;1.90;99.90
39919;DHT22;25589;51.552;13.424;2023-02-28T05:46:08;1.70;99.90
39919;DHT22;25589;51.552;13.424;2023-02-28T05:48:35;1.70;99.90
39919;DHT22;25589;51.552;13.424;2023-02-28T05:51:01;1.90;99.90
39919;DHT22;25589;51.552;13.424;2023-02-28T05:53:28;1.80;99.90
39919;DHT22;25589;51.552;13.424;2023-02-28T05:58:20;1.90;99.90
39919;DHT22;25589;51.552;13.424;2023-02-28T06:00:47;1.60;99.90
39919;DHT22;25589;51.552;13.424;2023-02-28T06:03:12;1.70;99.90
39919;DHT22;25589;51.552;13.424;2023-02-28T06:05:38;1.30;99.90
39919;DHT22;25589;51.552;13.424;2023-02-28T06:08:04;2.50;99.90
39919;DHT22;25589;51.552;13.424;2023-02-28T06:10:31;2.00;99.90
39919;DHT22;25589;51.552;13.424;2023-02-28T06:13:00;1.60;99.90
39919;DHT22;25589;51.552;13.424;2023-02-28T06:15:25;1.50;99.90
39919;DHT22;25589;51.552;13.424;2023-02-28T06:17:51;1.60;99.90
39919;DHT22;25589;51.552;13.424;2023-02-28T06:20:17;1.50;99.90
39919;DHT22;25589;51.552;13.424;2023-02-28T06:22:43;1.80;99.90
39919;DHT22;25589;51.552;13.424;2023-02-28T06:27:35;1.60;99.90
39919;DHT22;25589;51.552;13.424;2023-02-28T06:30:01;1.60;99.90
39919;DHT22;25589;51.552;13.424;2023-02-28T06:32:26;1.60;99.90
39919;DHT22;25589;51.552;13.424;2023-02-28T06:34:52;1.10;99.90
39919;DHT22;25589;51.552;13.424;2023-02-28T06:37:18;1.70;99.90
39919;DHT22;25589;51.552;13.424;2023-02-28T06:39:44;1.70;99.90
39919;DHT22;25589;51.552;13.424;2023-02-28T06:42:10;1.60;99.90
39919;DHT22;25589;51.552;13.424;2023-02-28T06:44:35;1.60;99.90
39919;DHT22;25589;51.552;13.424;2023-02-28T06:47:02;1.40;99.90
39919;DHT22;25589;51.552;13.424;2023-02-28T06:49:32;1.60;99.90
39919;DHT22;25589;51.552;13.424;2023-02-28T06:51:58;1.70;99.90
39919;DHT22;25589;51.552;13.424;2023-02-28T06:54:24;0.80;99.90
39919;DHT22;25589;51.552;13.424;2023-02-28T06:56:49;1.60;99.90
39919;DHT22;25589;51.552;13.424;2023-02-28T06:59:16;2.10;99.90
39919;DHT22;25589;51.552;13.424;2023-02-28T07:01:42;1.70;99.90
39919;DHT22;25589;51.552;13.424;2023-02-28T07:04:08;2.90;99.90
39919;DHT22;25589;51.552;13.424;2023-02-28T07:06:34;1.80;99.90
39919;DHT22;25589;51.552;13.424;2023-02-28T07:08:59;1.80;99.90
39919;DHT22;25589;51.552;13.424;2023-02-28T07:11:26;2.30;99.90
39919;DHT22;25589;51.552;13.424;2023-02-28T07:16:19;1.70;99.90
39919;DHT22;25589;51.552;13.424;2023-02-28T07:18:45;2.60;99.90
39919;DHT22;25589;51.552;13.424;2023-02-28T07:21:11;3.20;99.90
39919;DHT22;25589;51.552;13.424;2023-02-28T07:23:37;1.30;99.90
39919;DHT22;25589;51.552;13.424;2023-02-28T07:26:04;2.60;99.90
39919;DHT22;25589;51.552;13.424;2023-02-28T07:28:30;2.00;99.90
39919;DHT22;25589;51.552;13.424;2023-02-28T07:30:55;2.10;99.90
39919;DHT22;25589;51.552;13.424;2023-02-28T07:33:21;1.50;99.90
39919;DHT22;25589;51.552;13.424;2023-02-28T07:35:47;2.30;99.90
39919;DHT22;25589;51.552;13.424;2023-02-28T07:38:12;2.20;99.90
39919;DHT22;25589;51.552;13.424;2023-02-28T07:40:39;2.20;99.90
39919;DHT22;25589;51.552;13.424;2023-02-28T07:43:05;2.30;99.90
39919;DHT22;25589;51.552;13.424;2023-02-28T07:45:31;2.30;99.90
39919;DHT22;25589;51.552;13.424;2023-02-28T07:48:00;2.40;99.90
39919;DHT22;25589;51.552;13.424;2023-02-28T07:50:26;3.00;99.90
39919;DHT22;25589;51.552;13.424;2023-02-28T07:52:54;3.30;99.90
39919;DHT22;25589;51.552;13.424;2023-02-28T07:55:19;2.60;99.90
39919;DHT22;25589;51.552;13.424;2023-02-28T07:57:45;3.60;99.90
39919;DHT22;25589;51.552;13.424;2023-02-28T08:00:11;2.90;99.90
39919;DHT22;25589;51.552;13.424;2023-02-28T08:02:39;3.10;99.90
39919;DHT22;25589;51.552;13.424;2023-02-28T08:05:06;2.80;99.90
39919;DHT22;25589;51.552;13.424;2023-02-28T08:07:31;2.90;99.90
39919;DHT22;25589;51.552;13.424;2023-02-28T08:09:58;3.00;99.90
39919;DHT22;25589;51.552;13.424;2023-02-28T08:12:24;3.20;99.90
39919;DHT22;25589;51.552;13.424;2023-02-28T08:14:50;3.10;99.90
39919;DHT22;25589;51.552;13.424;2023-02-28T08:17:15;3.20;99.90
39919;DHT22;25589;51.552;13.424;2023-02-28T08:19:41;3.30;99.90
39919;DHT22;25589;51.552;13.424;2023-02-28T08:22:06;3.30;99.90
39919;DHT22;25589;51.552;13.424;2023-02-28T08:24:32;3.40;99.90
39919;DHT22;25589;51.552;13.424;2023-02-28T08:26:58;3.90;99.90
39919;DHT22;25589;51.552;13.424;2023-02-28T08:29:24;4.00;99.90
39919;DHT22;25589;51.552;13.424;2023-02-28T08:31:50;4.40;99.90
39919;DHT22;25589;51.552;13.424;2023-02-28T08:34:16;4.60;99.90
39919;DHT22;25589;51.552;13.424;2023-02-28T08:36:42;4.60;99.90
39919;DHT22;25589;51.552;13.424;2023-02-28T08:39:10;3.90;99.90
39919;DHT22;25589;51.552;13.424;2023-02-28T08:41:35;3.90;99.90
39919;DHT22;25589;51.552;13.424;2023-02-28T08:46:27;4.50;99.90
39919;DHT22;25589;51.552;13.424;2023-02-28T08:51:21;4.20;99.90
39919;DHT22;25589;51.552;13.424;2023-02-28T08:53:54;4.30;99.90
39919;DHT22;25589;51.552;13.424;2023-02-28T08:56:20;5.30;99.90
39919;DHT22;25589;51.552;13.424;2023-02-28T08:58:48;4.40;99.90
39919;DHT22;25589;51.552;13.424;2023-02-28T09:01:17;4.40;99.90
39919;DHT22;25589;51.552;13.424;2023-02-28T09:03:43;4.30;99.90
39919;DHT22;25589;51.552;13.424;2023-02-28T09:06:10;5.00;99.90
39919;DHT22;25589;51.552;13.424;2023-02-28T09:08:36;4.70;99.90
39919;DHT22;25589;51.552;13.424;2023-02-28T09:11:02;4.70;99.70
39919;DHT22;25589;51.552;13.424;2023-02-28T09:13:28;4.80;99.10
39919;DHT22;25589;51.552;13.424;2023-02-28T09:15:57;4.90;98.80
39919;DHT22;25589;51.552;13.424;2023-02-28T09:18:23;5.30;98.20
39919;DHT22;25589;51.552;13.424;2023-02-28T09:20:48;5.10;97.00
39919;DHT22;25589;51.552;13.424;2023-02-28T09:23:15;4.60;96.60
39919;DHT22;25589;51.552;13.424;2023-02-28T09:25:49;5.30;95.90
39919;DHT22;25589;51.552;13.424;2023-02-28T09:28:15;7.20;95.80
39919;DHT22;25589;51.552;13.424;2023-02-28T09:30:46;5.90;95.00
39919;DHT22;25589;51.552;13.424;2023-02-28T09:33:12;6.60;93.90
39919;DHT22;25589;51.552;13.424;2023-02-28T09:35:37;5.30;93.30
39919;DHT22;25589;51.552;13.424;2023-02-28T09:38:04;6.10;93.40
39919;DHT22;25589;51.552;13.424;2023-02-28T09:40:30;4.70;92.40
39919;DHT22;25589;51.552;13.424;2023-02-28T09:42:57;5.00;92.20
39919;DHT22;25589;51.552;13.424;2023-02-28T09:45:29;5.50;91.70
39919;DHT22;25589;51.552;13.424;2023-02-28T09:47:59;5.60;92.00
39919;DHT22;25589;51.552;13.424;2023-02-28T09:50:36;6.70;91.70
39919;DHT22;25589;51.552;13.424;2023-02-28T09:53:22;5.70;91.20
39919;DHT22;25589;51.552;13.424;2023-02-28T09:58:28;5.40;90.80
39919;DHT22;25589;51.552;13.424;2023-02-28T10:01:19;6.20;91.00
39919;DHT22;25589;51.552;13.424;2023-02-28T10:03:55;5.90;90.40
39919;DHT22;25589;51.552;13.424;2023-02-28T10:06:26;5.40;89.20
39919;DHT22;25589;51.552;13.424;2023-02-28T10:09:00;6.00;89.90
39919;DHT22;25589;51.552;13.424;2023-02-28T10:11:27;6.10;89.10
39919;DHT22;25589;51.552;13.424;2023-02-28T10:16:46;6.40;88.10
39919;DHT22;25589;51.552;13.424;2023-02-28T10:19:24;6.10;87.60
39919;DHT22;25589;51.552;13.424;2023-02-28T10:22:13;6.30;87.70
39919;DHT22;25589;51.552;13.424;2023-02-28T10:24:42;5.60;87.10
39919;DHT22;25589;51.552;13.424;2023-02-28T10:27:14;6.50;87.50
39919;DHT22;25589;51.552;13.424;2023-02-28T10:29:43;7.10;88.70
39919;DHT22;25589;51.552;13.424;2023-02-28T10:32:12;6.80;86.60
39919;DHT22;25589;51.552;13.424;2023-02-28T10:34:40;7.80;85.60
39919;DHT22;25589;51.552;13.424;2023-02-28T10:37:05;7.20;85.10
39919;DHT22;25589;51.552;13.424;2023-02-28T10:42:28;7.10;84.80
39919;DHT22;25589;51.552;13.424;2023-02-28T10:47:40;7.20;84.00
39919;DHT22;25589;51.552;13.424;2023-02-28T10:50:27;7.30;83.60
39919;DHT22;25589;51.552;13.424;2023-02-28T10:55:24;8.30;82.60
39919;DHT22;25589;51.552;13.424;2023-02-28T10:57:53;6.90;81.40
39919;DHT22;25589;51.552;13.424;2023-02-28T11:00:23;7.50;80.50
39919;DHT22;25589;51.552;13.424;2023-02-28T11:02:50;7.70;80.20
39919;DHT22;25589;51.552;13.424;2023-02-28T11:10:21;8.00;80.10
39919;DHT22;25589;51.552;13.424;2023-02-28T11:12:49;8.30;78.90
39919;DHT22;25589;51.552;13.424;2023-02-28T11:15:24;7.90;78.90
39919;DHT22;25589;51.552;13.424;2023-02-28T11:18:24;8.40;78.70
39919;DHT22;25589;51.552;13.424;2023-02-28T11:20:54;8.10;78.50
39919;DHT22;25589;51.552;13.424;2023-02-28T11:23:21;8.10;77.30
39919;DHT22;25589;51.552;13.424;2023-02-28T11:25:54;8.20;77.50
39919;DHT22;25589;51.552;13.424;2023-02-28T11:28:31;9.00;77.70
39919;DHT22;25589;51.552;13.424;2023-02-28T11:36:14;8.80;74.40
39919;DHT22;25589;51.552;13.424;2023-02-28T11:38:40;8.60;74.30
39919;DHT22;25589;51.552;13.424;2023-02-28T11:41:36;8.60;74.00
39919;DHT22;25589;51.552;13.424;2023-02-28T11:46:54;8.90;73.00
39919;DHT22;25589;51.552;13.424;2023-02-28T11:49:35;8.70;71.80
39919;DHT22;25589;51.552;13.424;2023-02-28T11:58:05;8.90;70.90
39919;DHT22;25589;51.552;13.424;2023-02-28T12:00:54;9.30;72.30
39919;DHT22;25589;51.552;13.424;2023-02-28T12:06:28;9.50;71.50
39919;DHT22;25589;51.552;13.424;2023-02-28T12:12:21;9.70;70.60
39919;DHT22;25589;51.552;13.424;2023-02-28T12:17:26;9.50;69.40
39919;DHT22;25589;51.552;13.424;2023-02-28T12:27:47;9.10;68.40
39919;DHT22;25589;51.552;13.424;2023-02-28T12:30:18;10.40;68.10
39919;DHT22;25589;51.552;13.424;2023-02-28T12:32:48;10.10;67.80
39919;DHT22;25589;51.552;13.424;2023-02-28T12:35:19;9.90;67.40
39919;DHT22;25589;51.552;13.424;2023-02-28T12:38:23;10.20;67.50
39919;DHT22;25589;51.552;13.424;2023-02-28T12:41:02;10.40;67.10
39919;DHT22;25589;51.552;13.424;2023-02-28T12:43:37;10.20;66.80
39919;DHT22;25589;51.552;13.424;2023-02-28T12:46:29;10.40;66.70
39919;DHT22;25589;51.552;13.424;2023-02-28T12:48:56;10.40;66.50
39919;DHT22;25589;51.552;13.424;2023-02-28T12:51:24;10.50;66.10
39919;DHT22;25589;51.552;13.424;2023-02-28T12:54:00;10.40;66.20
39919;DHT22;25589;51.552;13.424;2023-02-28T12:59:12;10.90;66.00
39919;DHT22;25589;51.552;13.424;2023-02-28T13:01:42;11.40;65.20
39919;DHT22;25589;51.552;13.424;2023-02-28T13:04:33;11.10;64.80
39919;DHT22;25589;51.552;13.424;2023-02-28T13:09:57;11.40;64.00
39919;DHT22;25589;51.552;13.424;2023-02-28T13:12:24;11.30;63.60
39919;DHT22;25589;51.552;13.424;2023-02-28T13:14:50;11.20;63.40
39919;DHT22;25589;51.552;13.424;2023-02-28T13:17:20;11.20;63.00
39919;DHT22;25589;51.552;13.424;2023-02-28T13:22:39;11.30;62.60
39919;DHT22;25589;51.552;13.424;2023-02-28T13:28:12;11.40;61.20
39919;DHT22;25589;51.552;13.424;2023-02-28T13:33:34;11.50;60.80
39919;DHT22;25589;51.552;13.424;2023-02-28T13:38:51;11.70;60.50
39919;DHT22;25589;51.552;13.424;2023-02-28T13:43:59;11.70;59.40
39919;DHT22;25589;51.552;13.424;2023-02-28T13:46:26;11.70;59.30
39919;DHT22;25589;51.552;13.424;2023-02-28T13:48:52;11.50;59.60
39919;DHT22;25589;51.552;13.424;2023-02-28T13:54:19;11.60;59.90
39919;DHT22;25589;51.552;13.424;2023-02-28T13:56:57;11.50;60.00
39919;DHT22;25589;51.552;13.424;2023-02-28T13:59:35;11.10;59.60
39919;DHT22;25589;51.552;13.424;2023-02-28T14:02:35;11.50;59.90
39919;DHT22;25589;51.552;13.424;2023-02-28T14:05:15;11.40;59.90
39919;DHT22;25589;51.552;13.424;2023-02-28T14:07:46;11.40;59.60
39919;DHT22;25589;51.552;13.424;2023-02-28T14:10:26;11.50;60.10
39919;DHT22;25589;51.552;13.424;2023-02-28T14:18:30;11.60;59.20
39919;DHT22;25589;51.552;13.424;2023-02-28T14:23:54;11.90;58.90
39919;DHT22;25589;51.552;13.424;2023-02-28T14:26:58;12.40;58.00
39919;DHT22;25589;51.552;13.424;2023-02-28T14:32:41;12.50;57.10
39919;DHT22;25589;51.552;13.424;2023-02-28T14:38:05;13.10;57.60
39919;DHT22;25589;51.552;13.424;2023-02-28T14:40:34;13.10;56.40
39919;DHT22;25589;51.552;13.424;2023-02-28T14:43:03;13.20;56.80
39919;DHT22;25589;51.552;13.424;2023-02-28T14:45:30;13.70;56.00
39919;DHT22;25589;51.552;13.424;2023-02-28T14:47:57;13.90;54.60
39919;DHT22;25589;51.552;13.424;2023-02-28T14:50:35;14.00;54.30
39919;DHT22;25589;51.552;13.424;2023-02-28T14:53:03;14.00;54.10
39919;DHT22;25589;51.552;13.424;2023-02-28T14:55:31;14.30;53.50
39919;DHT22;25589;51.552;13.424;2023-02-28T14:58:03;14.50;52.90
39919;DHT22;25589;51.552;13.424;2023-02-28T15:00:31;14.50;53.00
39919;DHT22;25589;51.552;13.424;2023-02-28T15:02:59;15.10;52.20
39919;DHT22;25589;51.552;13.424;2023-02-28T15:05:31;14.80;51.60
39919;DHT22;25589;51.552;13.424;2023-02-28T15:10:30;15.20;50.70
39919;DHT22;25589;51.552;13.424;2023-02-28T15:13:09;15.20;50.90
39919;DHT22;25589;51.552;13.424;2023-02-28T15:15:55;15.40;49.50
39919;DHT22;25589;51.552;13.424;2023-02-28T15:18:40;15.10;48.70
39919;DHT22;25589;51.552;13.424;2023-02-28T15:21:13;15.40;49.00
39919;DHT22;25589;51.552;13.424;2023-02-28T15:23:42;15.40;49.60
39919;DHT22;25589;51.552;13.424;2023-02-28T15:26:16;15.60;49.50
39919;DHT22;25589;51.552;13.424;2023-02-28T15:28:44;15.30;48.50
39919;DHT22;25589;51.552;13.424;2023-02-28T15:31:34;15.60;49.10
39919;DHT22;25589;51.552;13.424;2023-02-28T15:34:05;15.70;48.80
39919;DHT22;25589;51.552;13.424;2023-02-28T15:36:33;15.80;49.20
39919;DHT22;25589;51.552;13.424;2023-02-28T15:39:18;15.90;48.70
39919;DHT22;25589;51.552;13.424;2023-02-28T15:41:44;16.00;48.70
39919;DHT22;25589;51.552;13.424;2023-02-28T15:44:26;16.30;49.00
39919;DHT22;25589;51.552;13.424;2023-02-28T15:47:24;16.00;48.50
39919;DHT22;25589;51.552;13.424;2023-02-28T15:49:54;15.90;48.80
39919;DHT22;25589;51.552;13.424;2023-02-28T15:54:53;15.50;49.00
39919;DHT22;25589;51.552;13.424;2023-02-28T15:57:25;15.40;49.40
39919;DHT22;25589;51.552;13.424;2023-02-28T15:59:55;15.40;49.30
39919;DHT22;25589;51.552;13.424;2023-02-28T16:02:35;15.70;49.40
39919;DHT22;25589;51.552;13.424;2023-02-28T16:07:33;14.80;50.00
39919;DHT22;25589;51.552;13.424;2023-02-28T16:10:00;15.00;50.40
39919;DHT22;25589;51.552;13.424;2023-02-28T16:17:27;14.40;50.80
39919;DHT22;25589;51.552;13.424;2023-02-28T16:19:54;14.10;51.10
39919;DHT22;25589;51.552;13.424;2023-02-28T16:22:20;13.80;52.10
39919;DHT22;25589;51.552;13.424;2023-02-28T16:24:45;13.60;52.60
39919;DHT22;25589;51.552;13.424;2023-02-28T16:27:36;13.10;53.40
39919;DHT22;25589;51.552;13.424;2023-02-28T16:30:04;12.70;53.90
39919;DHT22;25589;51.552;13.424;2023-02-28T16:32:32;12.50;54.70
39919;DHT22;25589;51.552;13.424;2023-02-28T16:35:00;11.90;55.90
39919;DHT22;25589;51.552;13.424;2023-02-28T16:37:27;11.40;57.20
39919;DHT22;25589;51.552;13.424;2023-02-28T16:39:53;11.20;58.70
39919;DHT22;25589;51.552;13.424;2023-02-28T16:42:27;10.30;59.40
39919;DHT22;25589;51.552;13.424;2023-02-28T16:44:54;10.30;60.00
39919;DHT22;25589;51.552;13.424;2023-02-28T16:47:20;10.00;61.30
39919;DHT22;25589;51.552;13.424;2023-02-28T16:52:13;9.20;64.30
39919;DHT22;25589;51.552;13.424;2023-02-28T16:54:39;9.00;65.00
39919;DHT22;25589;51.552;13.424;2023-02-28T16:57:07;8.90;65.60
39919;DHT22;25589;51.552;13.424;2023-02-28T16:59:39;7.90;65.80
39919;DHT22;25589;51.552;13.424;2023-02-28T17:02:11;8.40;66.60
39919;DHT22;25589;51.552;13.424;2023-02-28T17:04:37;8.30;67.20
39919;DHT22;25589;51.552;13.424;2023-02-28T17:07:03;8.00;67.50
39919;DHT22;25589;51.552;13.424;2023-02-28T17:09:28;8.20;68.10
39919;DHT22;25589;51.552;13.424;2023-02-28T17:11:54;7.70;68.10
39919;DHT22;25589;51.552;13.424;2023-02-28T17:14:19;7.50;69.00
39919;DHT22;25589;51.552;13.424;2023-02-28T17:16:46;6.70;69.60
39919;DHT22;25589;51.552;13.424;2023-02-28T17:19:14;7.30;71.40
39919;DHT22;25589;51.552;13.424;2023-02-28T17:21:41;7.00;71.80
39919;DHT22;25589;51.552;13.424;2023-02-28T17:24:10;7.00;71.90
39919;DHT22;25589;51.552;13.424;2023-02-28T17:26:39;6.70;72.40
39919;DHT22;25589;51.552;13.424;2023-02-28T17:29:11;6.60;73.30
39919;DHT22;25589;51.552;13.424;2023-02-28T17:31:38;6.40;74.20
39919;DHT22;25589;51.552;13.424;2023-02-28T17:34:04;6.40;74.80
39919;DHT22;25589;51.552;13.424;2023-02-28T17:36:30;6.40;75.30
39919;DHT22;25589;51.552;13.424;2023-02-28T17:38:56;6.10;75.40
39919;DHT22;25589;51.552;13.424;2023-02-28T17:41:23;6.10;75.90
39919;DHT22;25589;51.552;13.424;2023-02-28T17:43:49;6.10;76.50
39919;DHT22;25589;51.552;13.424;2023-02-28T17:46:24;6.00;77.10
39919;DHT22;25589;51.552;13.424;2023-02-28T17:48:52;6.20;77.80
39919;DHT22;25589;51.552;13.424;2023-02-28T17:51:22;5.90;78.30
39919;DHT22;25589;51.552;13.424;2023-02-28T17:53:48;6.10;78.80
39919;DHT22;25589;51.552;13.424;2023-02-28T17:56:18;6.10;79.50
39919;DHT22;25589;51.552;13.424;2023-02-28T18:01:10;5.40;80.10
39919;DHT22;25589;51.552;13.424;2023-02-28T18:03:37;5.30;81.20
39919;DHT22;25589;51.552;13.424;2023-02-28T18:06:04;5.10;82.10